createdAt,value
2023-02-03T00:01:54.996Z,82.50
2023-02-03T00:04:26.345Z,82.50
2023-02-03T00:06:58.271Z,82.23
2023-02-03T00:09:28.937Z,82.41
2023-02-03T00:12:00.565Z,82.67
2023-02-03T00:14:33.768Z,82.07
2023-02-03T00:17:04.936Z,81.83
2023-02-03T00:19:37.250Z,82.39
2023-02-03T00:22:09.382Z,81.72
2023-02-03T00:24:39.986Z,81.56
2023-02-03T00:27:10.455Z,82.26
2023-02-03T00:29:42.291Z,82.23
2023-02-03T00:32:12.976Z,82.56
2023-02-03T00:34:45.339Z,83.55
2023-02-03T00:37:16.023Z,83.61
2023-02-03T00:39:51.685Z,84.26
2023-02-03T00:42:19.979Z,84.66
2023-02-03T00:44:50.576Z,85.55
2023-02-03T00:47:24.305Z,85.44
2023-02-03T00:49:57.582Z,85.64
2023-02-03T00:52:30.275Z,85.93
2023-02-03T00:55:03.915Z,85.91
2023-02-03T00:57:34.652Z,86.32
2023-02-03T01:00:06.344Z,86.63
2023-02-03T01:02:37.992Z,86.47
2023-02-03T01:05:10.853Z,86.81
2023-02-03T01:07:41.723Z,86.82
2023-02-03T01:10:14.427Z,87.17
2023-02-03T01:12:46.635Z,87.26
2023-02-03T01:15:17.326Z,87.13
2023-02-03T01:17:48.249Z,86.92
2023-02-03T01:20:21.719Z,87.18
2023-02-03T01:22:52.464Z,87.59
2023-02-03T01:25:27.116Z,87.39
2023-02-03T01:27:58.638Z,87.83
2023-02-03T01:30:32.938Z,87.63
2023-02-03T01:33:05.382Z,87.23
2023-02-03T01:35:39.470Z,87.07
2023-02-03T01:38:10.433Z,87.32
2023-02-03T01:40:48.822Z,87.52
2023-02-03T01:43:43.181Z,88.13
2023-02-03T01:46:41.906Z,87.91
2023-02-03T01:49:27.752Z,87.96
2023-02-03T01:52:00.983Z,88.21
2023-02-03T01:54:37.707Z,88.50
2023-02-03T01:57:15.562Z,88.07
2023-02-03T01:59:46.973Z,87.72
2023-02-03T02:02:21.073Z,88.15
2023-02-03T02:04:56.358Z,88.41
2023-02-03T02:07:27.069Z,88.18
2023-02-03T02:10:00.859Z,88.40
2023-02-03T02:12:32.210Z,87.90
2023-02-03T02:15:03.563Z,88.31
2023-02-03T02:17:55.079Z,88.55
2023-02-03T02:21:02.931Z,88.72
2023-02-03T02:23:46.594Z,88.64
2023-02-03T02:26:39.491Z,88.78
2023-02-03T02:29:17.157Z,89.02
2023-02-03T02:31:56.725Z,89.04
2023-02-03T02:34:47.501Z,89.15
2023-02-03T02:37:23.266Z,88.88
2023-02-03T02:40:02.722Z,88.80
2023-02-03T02:43:07.860Z,88.56
2023-02-03T02:45:44.359Z,88.49
2023-02-03T02:48:29.752Z,88.62
2023-02-03T02:51:04.802Z,88.64
2023-02-03T02:53:41.416Z,88.85
2023-02-03T02:56:15.669Z,89.09
2023-02-03T02:58:51.550Z,89.19
2023-02-03T03:01:23.354Z,89.30
2023-02-03T03:03:55.914Z,89.22
2023-02-03T03:06:32.222Z,89.20
2023-02-03T03:09:13.657Z,89.27
2023-02-03T03:11:50.619Z,89.48
2023-02-03T03:14:26.007Z,89.63
2023-02-03T03:16:59.547Z,89.69
2023-02-03T03:19:33.127Z,89.75
2023-02-03T03:22:10.451Z,89.88
2023-02-03T03:24:52.351Z,89.91
2023-02-03T03:27:27.574Z,89.99
2023-02-03T03:30:04.654Z,89.94
2023-02-03T03:32:42.922Z,89.98
2023-02-03T03:35:13.203Z,89.95
2023-02-03T03:38:05.200Z,89.96
2023-02-03T03:40:42.415Z,90.16
2023-02-03T03:43:17.230Z,90.22
2023-02-03T03:46:04.041Z,89.89
2023-02-03T03:49:01.614Z,89.95
2023-02-03T03:51:48.118Z,90.09
2023-02-03T03:54:21.565Z,90.27
2023-02-03T03:57:03.873Z,90.35
2023-02-03T03:59:37.362Z,90.15
2023-02-03T04:02:08.896Z,89.83
2023-02-03T04:04:41.945Z,89.83
2023-02-03T04:07:16.273Z,89.94
2023-02-03T04:09:46.843Z,89.99
2023-02-03T04:12:25.887Z,89.89
2023-02-03T04:14:56.418Z,89.89
2023-02-03T04:17:29.606Z,89.85
2023-02-03T04:20:03.038Z,89.84
2023-02-03T04:22:35.658Z,89.91
2023-02-03T04:25:09.535Z,89.97
2023-02-03T04:27:42.460Z,90.08
2023-02-03T04:30:15.305Z,90.00
2023-02-03T04:32:47.889Z,89.70
2023-02-03T04:35:19.456Z,89.85
2023-02-03T04:37:50.017Z,89.73
2023-02-03T04:40:22.362Z,89.93
2023-02-03T04:42:53.060Z,90.02
2023-02-03T04:45:25.276Z,89.80
2023-02-03T04:47:58.073Z,89.89
2023-02-03T04:50:28.141Z,90.02
2023-02-03T04:53:00.376Z,89.96
2023-02-03T04:55:31.069Z,90.15
2023-02-03T04:58:03.720Z,90.25
2023-02-03T05:00:35.772Z,90.33
2023-02-03T05:03:06.164Z,90.40
2023-02-03T05:05:41.718Z,90.33
2023-02-03T05:08:12.420Z,90.42
2023-02-03T05:10:43.680Z,90.37
2023-02-03T05:13:14.108Z,90.52
2023-02-03T05:15:44.746Z,90.53
2023-02-03T05:18:15.165Z,90.60
2023-02-03T05:20:45.601Z,90.61
2023-02-03T05:23:16.851Z,90.54
2023-02-03T05:25:48.010Z,90.54
2023-02-03T05:28:18.647Z,90.44
2023-02-03T05:30:49.584Z,90.53
2023-02-03T05:33:21.484Z,90.57
2023-02-03T05:35:52.158Z,90.63
2023-02-03T05:38:25.503Z,90.60
2023-02-03T05:41:13.698Z,90.54
2023-02-03T05:43:44.269Z,90.66
2023-02-03T05:46:14.867Z,90.56
2023-02-03T05:48:47.023Z,90.44
2023-02-03T05:51:18.746Z,90.48
2023-02-03T05:53:49.351Z,90.38
2023-02-03T05:56:21.501Z,90.39
2023-02-03T05:58:53.439Z,90.31
2023-02-03T06:01:24.527Z,90.21
2023-02-03T06:03:55.214Z,90.21
2023-02-03T06:06:29.341Z,90.24
2023-02-03T06:09:01.258Z,90.17
2023-02-03T06:11:33.479Z,90.12
2023-02-03T06:14:05.546Z,90.32
2023-02-03T06:16:36.265Z,90.34
2023-02-03T06:19:06.704Z,90.40
2023-02-03T06:21:38.531Z,90.37
2023-02-03T06:24:09.011Z,90.39
2023-02-03T06:26:41.569Z,90.33
2023-02-03T06:29:12.224Z,90.31
2023-02-03T06:31:42.935Z,90.31
2023-02-03T06:34:14.169Z,90.30
2023-02-03T06:36:44.705Z,90.35
2023-02-03T06:39:17.052Z,90.31
2023-02-03T06:41:49.583Z,90.28
2023-02-03T06:44:22.528Z,90.34
2023-02-03T06:46:53.611Z,90.39
2023-02-03T06:49:24.281Z,90.34
2023-02-03T06:51:54.868Z,90.33
2023-02-03T06:54:25.508Z,90.24
2023-02-03T06:56:56.184Z,90.21
2023-02-03T06:59:27.907Z,90.23
2023-02-03T07:01:59.729Z,90.25
2023-02-03T07:04:31.999Z,90.18
2023-02-03T07:07:02.459Z,90.12
2023-02-03T07:09:33.093Z,90.09
2023-02-03T07:12:07.666Z,89.96
2023-02-03T07:14:39.544Z,90.03
2023-02-03T07:17:11.434Z,90.06
2023-02-03T07:19:44.530Z,90.15
2023-02-03T07:22:16.336Z,90.20
2023-02-03T07:24:47.898Z,90.21
2023-02-03T07:27:20.181Z,90.25
2023-02-03T07:29:50.744Z,90.18
2023-02-03T07:32:22.249Z,90.22
2023-02-03T07:34:53.084Z,90.26
2023-02-03T07:37:23.728Z,90.19
2023-02-03T07:39:54.698Z,90.24
2023-02-03T07:42:25.832Z,90.21
2023-02-03T07:44:56.494Z,90.14
2023-02-03T07:47:27.104Z,90.25
2023-02-03T07:50:00.916Z,90.20
2023-02-03T07:52:33.082Z,90.19
2023-02-03T07:55:08.241Z,90.15
2023-02-03T07:57:42.847Z,90.11
2023-02-03T08:00:17.365Z,90.11
2023-02-03T08:02:49.532Z,90.12
2023-02-03T08:05:21.123Z,90.19
2023-02-03T08:07:51.773Z,90.28
2023-02-03T08:10:22.813Z,90.17
2023-02-03T08:12:56.008Z,90.13
2023-02-03T08:15:33.298Z,90.17
2023-02-03T08:18:05.371Z,90.12
2023-02-03T08:20:38.101Z,90.16
2023-02-03T08:23:11.402Z,90.27
2023-02-03T08:25:42.954Z,90.28
2023-02-03T08:28:13.830Z,90.31
2023-02-03T08:30:44.352Z,90.36
2023-02-03T08:33:16.681Z,90.21
2023-02-03T08:35:49.936Z,90.23
2023-02-03T08:38:22.980Z,90.27
2023-02-03T08:40:54.412Z,90.24
2023-02-03T08:43:27.855Z,90.38
2023-02-03T08:46:03.291Z,90.53
2023-02-03T08:48:38.795Z,90.38
2023-02-03T08:51:16.998Z,90.24
2023-02-03T08:53:50.350Z,90.27
2023-02-03T08:56:20.976Z,90.38
2023-02-03T08:58:55.736Z,90.51
2023-02-03T09:01:28.476Z,90.53
2023-02-03T09:04:05.639Z,90.51
2023-02-03T09:06:40.874Z,90.46
2023-02-03T09:09:16.433Z,90.52
2023-02-03T09:11:47.489Z,90.46
2023-02-03T09:14:20.858Z,90.40
2023-02-03T09:16:54.899Z,90.32
2023-02-03T09:19:30.532Z,90.38
2023-02-03T09:22:01.789Z,90.28
2023-02-03T09:24:35.688Z,90.30
2023-02-03T09:27:06.833Z,90.26
2023-02-03T09:29:39.218Z,90.27
2023-02-03T09:32:13.699Z,90.35
2023-02-03T09:34:45.661Z,90.32
2023-02-03T09:37:17.752Z,90.34
2023-02-03T09:39:50.049Z,90.44
2023-02-03T09:42:40.654Z,90.43
2023-02-03T09:45:20.186Z,90.49
2023-02-03T09:47:55.405Z,90.56
2023-02-03T09:50:29.702Z,90.61
2023-02-03T09:53:03.623Z,90.58
2023-02-03T09:55:48.047Z,90.49
2023-02-03T09:58:26.808Z,90.51
2023-02-03T10:01:02.130Z,90.26
2023-02-03T10:03:57.221Z,90.31
2023-02-03T10:06:43.830Z,90.26
2023-02-03T10:09:41.185Z,90.19
2023-02-03T10:12:18.188Z,90.20
2023-02-03T10:15:05.835Z,90.05
2023-02-03T10:17:54.322Z,89.75
2023-02-03T10:20:36.577Z,89.66
2023-02-03T10:23:12.305Z,89.60
2023-02-03T10:25:57.916Z,89.45
2023-02-03T10:28:36.030Z,89.33
2023-02-03T10:31:11.902Z,89.38
2023-02-03T10:33:43.271Z,89.27
2023-02-03T10:36:26.476Z,89.36
2023-02-03T10:39:02.819Z,89.53
2023-02-03T10:41:34.265Z,89.71
2023-02-03T10:44:09.068Z,89.92
2023-02-03T10:46:43.506Z,89.59
2023-02-03T10:49:16.628Z,89.49
2023-02-03T10:51:56.682Z,89.00
2023-02-03T10:54:38.193Z,86.87
2023-02-03T10:57:16.064Z,86.57
2023-02-03T10:59:51.415Z,85.01
2023-02-03T11:02:29.581Z,84.71
2023-02-03T11:05:19.736Z,83.03
2023-02-03T11:07:52.048Z,82.97
2023-02-03T11:10:40.864Z,80.44
2023-02-03T11:13:26.612Z,78.68
2023-02-03T11:16:04.542Z,75.39
2023-02-03T11:18:44.093Z,78.22
2023-02-03T11:21:18.924Z,79.73
2023-02-03T11:23:56.463Z,80.62
2023-02-03T11:26:31.886Z,80.72
2023-02-03T11:29:06.670Z,81.13
2023-02-03T11:31:38.855Z,81.19
2023-02-03T11:34:20.993Z,81.66
2023-02-03T11:36:53.231Z,82.12
2023-02-03T11:39:39.049Z,80.69
2023-02-03T11:42:24.352Z,79.81
2023-02-03T11:44:58.343Z,79.86
2023-02-03T11:47:30.329Z,79.13
2023-02-03T11:50:16.770Z,78.38
2023-02-03T11:52:50.403Z,78.33
2023-02-03T11:56:01.091Z,78.57
2023-02-03T11:58:59.563Z,78.91
2023-02-03T12:01:59.789Z,78.13
2023-02-03T12:04:40.328Z,78.09
2023-02-03T12:07:32.579Z,77.75
2023-02-03T12:10:19.340Z,77.80
2023-02-03T12:12:55.522Z,76.39
2023-02-03T12:15:38.589Z,75.97
2023-02-03T12:18:18.428Z,75.58
2023-02-03T12:20:59.455Z,75.97
2023-02-03T12:23:41.110Z,76.46
2023-02-03T12:26:18.809Z,75.63
2023-02-03T12:29:05.537Z,74.03
2023-02-03T12:31:59.985Z,73.37
2023-02-03T12:34:34.886Z,71.76
2023-02-03T12:37:22.115Z,71.20
2023-02-03T12:40:06.030Z,70.20
2023-02-03T12:42:39.816Z,70.11
2023-02-03T12:45:19.797Z,68.14
2023-02-03T12:48:00.241Z,68.56
2023-02-03T12:50:53.911Z,70.49
2023-02-03T12:53:34.979Z,72.36
2023-02-03T12:56:15.865Z,75.69
2023-02-03T12:58:56.710Z,79.72
2023-02-03T13:01:36.446Z,85.02
2023-02-03T13:04:37.711Z,87.60
2023-02-03T13:07:27.674Z,87.79
2023-02-03T13:10:08.083Z,88.53
2023-02-03T13:12:50.625Z,88.76
2023-02-03T13:15:29.935Z,88.80
2023-02-03T13:18:26.032Z,88.81
2023-02-03T13:20:58.369Z,88.56
2023-02-03T13:23:29.455Z,87.41
2023-02-03T13:26:22.151Z,87.54
2023-02-03T13:28:58.237Z,87.17
2023-02-03T13:32:03.499Z,87.46
2023-02-03T13:34:50.006Z,88.09
2023-02-03T13:37:42.240Z,86.84
2023-02-03T13:40:40.656Z,87.13
2023-02-03T13:43:28.381Z,86.38
2023-02-03T13:45:51.948Z,85.39
2023-02-03T13:48:28.499Z,85.46
2023-02-03T13:51:12.649Z,85.33
2023-02-03T13:53:48.296Z,84.49
2023-02-03T13:56:25.032Z,84.74
2023-02-03T13:59:04.983Z,84.18
2023-02-03T14:01:42.718Z,84.04
2023-02-03T14:04:28.714Z,83.63
2023-02-03T14:07:02.314Z,83.86
2023-02-03T14:09:38.361Z,83.32
2023-02-03T14:12:20.904Z,83.27
2023-02-03T14:14:59.381Z,83.08
2023-02-03T14:17:42.892Z,83.13
2023-02-03T14:20:31.718Z,82.08
2023-02-03T14:23:08.344Z,81.89
2023-02-03T14:25:50.936Z,82.23
2023-02-03T14:28:30.468Z,81.62
2023-02-03T14:31:14.977Z,81.29
2023-02-03T14:34:05.845Z,80.17
2023-02-03T14:36:40.473Z,79.40
2023-02-03T14:39:22.920Z,79.35
2023-02-03T14:42:26.822Z,79.40
2023-02-03T14:45:17.547Z,79.11
2023-02-03T14:48:03.073Z,79.14
2023-02-03T14:50:45.883Z,78.03
2023-02-03T14:53:28.375Z,77.74
2023-02-03T14:56:04.676Z,77.24
2023-02-03T14:58:43.987Z,76.45
2023-02-03T15:01:29.712Z,74.99
2023-02-03T15:04:25.392Z,74.88
2023-02-03T15:06:57.727Z,75.70
2023-02-03T15:09:31.226Z,75.60
2023-02-03T15:12:02.218Z,76.28
2023-02-03T15:14:34.386Z,77.13
2023-02-03T15:17:07.884Z,76.62
2023-02-03T15:19:41.123Z,77.32
2023-02-03T15:22:32.166Z,76.98
2023-02-03T15:25:07.369Z,76.43
2023-02-03T15:27:39.519Z,76.47
2023-02-03T15:30:26.077Z,76.61
2023-02-03T15:33:03.002Z,76.84
2023-02-03T15:35:38.954Z,76.56
2023-02-03T15:38:25.527Z,76.63
2023-02-03T15:40:58.900Z,77.78
2023-02-03T15:43:43.967Z,78.72
2023-02-03T15:46:28.391Z,79.53
2023-02-03T15:49:20.130Z,78.84
2023-02-03T15:51:57.072Z,78.80
2023-02-03T15:54:41.121Z,79.28
2023-02-03T15:57:20.560Z,79.40
2023-02-03T16:00:00.831Z,79.43
2023-02-03T16:02:34.378Z,79.30
2023-02-03T16:05:29.411Z,79.34
2023-02-03T16:08:20.976Z,79.58
2023-02-03T16:10:51.446Z,79.23
2023-02-03T16:13:28.030Z,78.87
2023-02-03T16:16:10.970Z,79.25
2023-02-03T16:18:43.921Z,79.09
2023-02-03T16:21:37.831Z,79.01
2023-02-03T16:24:09.859Z,79.35
2023-02-03T16:26:40.310Z,79.47
2023-02-03T16:29:31.960Z,79.70
2023-02-03T16:32:22.925Z,79.36
2023-02-03T16:35:13.626Z,79.62
2023-02-03T16:38:05.837Z,80.09
2023-02-03T16:40:54.754Z,79.96
2023-02-03T16:43:58.180Z,80.43
2023-02-03T16:46:48.547Z,80.83
2023-02-03T16:49:36.965Z,81.78
2023-02-03T16:52:08.859Z,81.88
2023-02-03T16:54:40.344Z,82.19
2023-02-03T16:57:10.776Z,82.05
2023-02-03T16:59:41.261Z,81.37
2023-02-03T17:02:13.563Z,81.34
2023-02-03T17:04:44.060Z,80.19
2023-02-03T17:07:14.629Z,80.12
2023-02-03T17:09:47.319Z,79.96
2023-02-03T17:12:19.002Z,79.82
2023-02-03T17:14:49.456Z,79.26
2023-02-03T17:17:21.810Z,78.79
2023-02-03T17:19:52.765Z,78.25
2023-02-03T17:22:24.259Z,77.91
2023-02-03T17:24:56.753Z,77.52
2023-02-03T17:27:28.975Z,77.57
2023-02-03T17:30:02.663Z,77.18
2023-02-03T17:32:33.201Z,77.55
2023-02-03T17:35:03.969Z,77.31
2023-02-03T17:37:37.094Z,77.32
2023-02-03T17:54:18.153Z,77.88
2023-02-03T17:56:53.945Z,77.89
2023-02-03T17:59:26.915Z,78.10
2023-02-03T18:02:03.398Z,77.91
2023-02-03T18:04:36.953Z,78.14
2023-02-03T18:07:09.213Z,78.06
2023-02-03T18:09:40.014Z,78.11
2023-02-03T18:12:13.001Z,78.13
2023-02-03T18:14:45.149Z,78.01
2023-02-03T18:17:15.782Z,78.01
2023-02-03T18:19:55.685Z,78.20
2023-02-03T18:22:25.166Z,78.13
2023-02-03T18:24:57.649Z,78.25
2023-02-03T18:27:29.818Z,77.91
2023-02-03T18:30:00.332Z,78.08
2023-02-03T18:32:33.518Z,77.96
2023-02-03T18:35:06.280Z,77.93
2023-02-03T18:37:37.290Z,77.94
2023-02-03T18:40:08.786Z,77.94
2023-02-03T18:42:41.593Z,77.94
2023-02-03T18:45:12.928Z,77.94
2023-02-03T18:47:46.065Z,78.09
2023-02-03T18:50:15.909Z,78.11
2023-02-03T18:52:46.898Z,78.39
2023-02-03T18:55:23.055Z,78.09
2023-02-03T18:57:51.938Z,78.09
2023-02-03T19:00:22.813Z,78.21
2023-02-03T19:02:54.288Z,78.43
2023-02-03T19:05:25.077Z,78.33
2023-02-03T19:07:55.735Z,78.23
2023-02-03T19:10:28.281Z,78.28
2023-02-03T19:12:59.714Z,78.36
2023-02-03T19:15:31.028Z,78.30
2023-02-03T19:18:01.634Z,78.38
2023-02-03T19:20:33.741Z,78.41
2023-02-03T19:23:06.097Z,78.28
2023-02-03T19:25:39.865Z,78.55
2023-02-03T19:28:17.485Z,78.78
2023-02-03T19:30:42.578Z,78.90
2023-02-03T19:33:15.209Z,79.13
2023-02-03T19:35:48.517Z,79.70
2023-02-03T19:38:19.129Z,80.07
2023-02-03T19:40:50.808Z,80.19
2023-02-03T19:43:21.767Z,80.39
2023-02-03T19:45:53.732Z,80.60
2023-02-03T19:48:26.530Z,80.83
2023-02-03T19:50:57.680Z,81.13
2023-02-03T19:53:28.087Z,81.27
2023-02-03T19:55:59.070Z,81.11
2023-02-03T19:58:30.767Z,81.27
2023-02-03T20:01:01.307Z,81.46
2023-02-03T20:03:32.634Z,81.30
2023-02-03T20:06:04.929Z,81.25
2023-02-03T20:08:35.410Z,81.22
2023-02-03T20:11:06.291Z,81.38
2023-02-03T20:13:37.896Z,81.67
2023-02-03T20:16:08.559Z,81.91
2023-02-03T20:18:39.070Z,82.14
2023-02-03T20:21:10.318Z,82.49
2023-02-03T20:23:41.473Z,83.01
2023-02-03T20:26:14.347Z,83.45
2023-02-03T20:28:46.012Z,83.63
2023-02-03T20:31:16.607Z,84.28
2023-02-03T20:33:47.348Z,85.06
2023-02-03T20:36:17.899Z,85.45
2023-02-03T20:38:50.206Z,85.84
2023-02-03T20:41:20.753Z,86.36
2023-02-03T20:43:53.677Z,86.91
2023-02-03T20:46:26.240Z,87.28
2023-02-03T20:48:56.764Z,87.40
2023-02-03T20:51:29.351Z,87.37
2023-02-03T20:54:03.194Z,87.53
2023-02-03T20:56:35.378Z,87.86
2023-02-03T20:59:09.167Z,88.14
2023-02-03T21:01:41.409Z,88.29
2023-02-03T21:04:35.274Z,88.60
2023-02-03T21:07:18.068Z,88.79
2023-02-03T21:09:48.856Z,88.97
2023-02-03T21:12:20.856Z,89.13
2023-02-03T21:14:53.670Z,89.10
2023-02-03T21:17:29.568Z,87.30
2023-02-03T21:20:00.134Z,87.25
2023-02-03T21:22:33.117Z,87.09
2023-02-03T21:25:05.106Z,86.74
2023-02-03T21:27:36.230Z,86.86
2023-02-03T21:30:34.346Z,86.80
2023-02-03T21:33:13.095Z,87.05
2023-02-03T21:35:43.847Z,86.43
2023-02-03T21:38:34.006Z,85.69
2023-02-03T21:41:06.114Z,85.90
2023-02-03T21:43:36.937Z,85.05
2023-02-03T21:46:09.006Z,84.31
2023-02-03T21:48:41.166Z,83.74
2023-02-03T21:51:17.681Z,84.17
2023-02-03T21:53:58.159Z,83.81
2023-02-03T21:56:32.284Z,83.81
2023-02-03T21:59:05.892Z,83.78
2023-02-03T22:01:40.320Z,83.76
2023-02-03T22:04:22.301Z,83.80
2023-02-03T22:06:57.540Z,83.75
2023-02-03T22:09:29.643Z,84.22
2023-02-03T22:12:01.363Z,83.82
2023-02-03T22:14:32.006Z,84.05
2023-02-03T22:17:02.557Z,84.13
2023-02-03T22:19:34.994Z,84.56
2023-02-03T22:22:06.219Z,85.33
2023-02-03T22:24:41.054Z,85.32
2023-02-03T22:27:11.573Z,85.87
2023-02-03T22:29:42.130Z,86.50
2023-02-03T22:32:14.173Z,87.26
2023-02-03T22:34:44.682Z,87.59
2023-02-03T22:37:15.247Z,87.92
2023-02-03T22:39:46.243Z,86.45
2023-02-03T22:42:17.806Z,86.86
2023-02-03T22:44:49.699Z,86.04
2023-02-03T22:47:20.333Z,86.01
2023-02-03T22:49:51.235Z,85.72
2023-02-03T22:52:22.797Z,85.33
2023-02-03T22:54:56.481Z,84.76
2023-02-03T22:57:26.659Z,84.25
2023-02-03T22:59:57.188Z,83.81
2023-02-03T23:02:29.205Z,82.81
2023-02-03T23:04:59.671Z,82.98
2023-02-03T23:07:30.309Z,82.78
2023-02-03T23:10:01.532Z,82.72
2023-02-03T23:12:32.071Z,82.98
2023-02-03T23:15:04.370Z,83.18
2023-02-03T23:17:35.082Z,83.60
2023-02-03T23:20:07.777Z,83.91
2023-02-03T23:22:39.408Z,83.88
2023-02-03T23:25:11.003Z,84.09
2023-02-03T23:27:42.574Z,84.89
2023-02-03T23:30:16.430Z,85.55
2023-02-03T23:32:46.814Z,86.41
2023-02-03T23:35:39.884Z,85.63
2023-02-03T23:38:11.407Z,83.20
2023-02-03T23:40:44.738Z,83.35
2023-02-03T23:43:16.668Z,84.20
2023-02-03T23:45:48.619Z,84.90
2023-02-03T23:48:20.661Z,85.07
2023-02-03T23:50:52.987Z,85.17
2023-02-03T23:53:23.866Z,85.11
2023-02-03T23:55:58.417Z,85.08
2023-02-03T23:58:31.786Z,85.19
